createdAt,value
2018-05-13T08:59:42.901Z,23.18
2018-05-13T09:00:42.705Z,23.17
2018-05-13T09:02:46.589Z,23.21
2018-05-13T09:03:46.461Z,23.17
2018-05-13T09:05:50.351Z,23.32
2018-05-13T09:06:50.210Z,23.25
2018-05-13T09:08:54.047Z,23.34
2018-05-13T09:09:53.970Z,23.36
2018-05-13T09:10:53.900Z,23.39
2018-05-13T09:11:53.826Z,23.40
2018-05-13T09:12:53.758Z,23.51
2018-05-13T09:13:53.692Z,23.47
2018-05-13T09:14:53.614Z,23.48
2018-05-13T09:15:53.588Z,23.50
2018-05-13T09:16:53.469Z,23.46
2018-05-13T09:17:53.409Z,23.55
2018-05-13T09:18:53.327Z,23.58
2018-05-13T09:19:53.257Z,23.54
2018-05-13T09:20:53.219Z,23.56
2018-05-13T09:21:53.123Z,23.61
2018-05-13T09:22:53.044Z,23.62
2018-05-13T09:23:52.971Z,23.62
2018-05-13T09:24:52.904Z,23.63
2018-05-13T09:25:52.836Z,23.77
2018-05-13T09:26:52.759Z,23.73
2018-05-13T09:27:52.692Z,23.81
2018-05-13T09:28:52.635Z,23.76
2018-05-13T09:29:52.549Z,23.76
2018-05-13T09:30:52.477Z,23.69
2018-05-13T09:31:52.411Z,23.81
2018-05-13T09:32:52.339Z,23.77
2018-05-13T09:33:52.268Z,23.87
2018-05-13T09:34:52.195Z,23.88
2018-05-13T09:35:52.138Z,23.86
2018-05-13T09:36:52.060Z,23.93
2018-05-13T09:37:51.988Z,23.93
2018-05-13T09:38:51.926Z,24.01
2018-05-13T09:39:51.847Z,24.03
2018-05-13T09:40:51.776Z,24.06
2018-05-13T09:41:51.707Z,23.99
2018-05-13T09:42:51.634Z,24.02
2018-05-13T09:43:51.566Z,23.99
2018-05-13T09:44:51.495Z,24.03
2018-05-13T09:45:51.459Z,24.13
2018-05-13T09:46:51.361Z,24.14
2018-05-13T09:47:51.286Z,24.18
2018-05-13T09:48:51.219Z,24.18
2018-05-13T09:49:51.161Z,24.21
2018-05-13T09:50:51.079Z,24.16
2018-05-13T09:51:51.011Z,24.18
2018-05-13T09:52:50.936Z,24.24
2018-05-13T09:53:50.867Z,24.33
2018-05-13T09:54:50.804Z,24.35
2018-05-13T09:55:50.728Z,24.35
2018-05-13T09:56:50.661Z,24.40
2018-05-13T09:57:50.604Z,24.42
2018-05-13T09:58:50.517Z,24.54
2018-05-13T09:59:50.449Z,24.53
2018-05-13T10:00:50.392Z,24.51
2018-05-13T10:01:50.309Z,24.51
2018-05-13T10:02:50.238Z,24.47
2018-05-13T10:03:50.185Z,24.48
2018-05-13T10:04:50.099Z,24.54
2018-05-13T10:05:50.033Z,24.58
2018-05-13T10:06:49.959Z,24.53
2018-05-13T10:07:49.891Z,24.70
2018-05-13T10:08:49.819Z,24.63
2018-05-13T10:09:49.752Z,24.63
2018-05-13T10:10:49.681Z,24.66
2018-05-13T10:11:49.612Z,24.78
2018-05-13T10:12:49.541Z,24.69
2018-05-13T10:13:49.496Z,24.81
2018-05-13T10:14:49.406Z,24.89
2018-05-13T10:15:49.337Z,24.95
2018-05-13T10:16:49.263Z,25.04
2018-05-13T10:17:49.195Z,24.98
2018-05-13T10:18:49.127Z,25.06
2018-05-13T10:19:49.055Z,25.11
2018-05-13T10:20:48.986Z,25.29
2018-05-13T10:21:48.917Z,25.22
2018-05-13T10:22:48.846Z,25.31
2018-05-13T10:23:48.778Z,25.35
2018-05-13T10:24:48.711Z,25.35
2018-05-13T10:25:48.662Z,25.28
2018-05-13T10:26:48.570Z,25.40
2018-05-13T10:27:48.502Z,25.38
2018-05-13T10:28:48.432Z,25.47
2018-05-13T10:29:48.393Z,25.53
2018-05-13T10:30:48.425Z,25.47
2018-05-13T10:31:48.227Z,25.59
2018-05-13T10:32:48.157Z,25.69
2018-05-13T10:33:48.088Z,25.66
2018-05-13T10:34:48.017Z,25.80
2018-05-13T10:35:47.948Z,25.84
2018-05-13T10:36:47.879Z,25.88
2018-05-13T10:37:47.810Z,25.96
2018-05-13T10:38:47.741Z,25.88
2018-05-13T10:39:47.673Z,26.00
2018-05-13T10:40:47.604Z,25.96
2018-05-13T10:41:47.535Z,26.00
2018-05-13T10:42:47.469Z,26.00
2018-05-13T10:43:47.398Z,25.98
2018-05-13T10:44:47.330Z,25.99
2018-05-13T10:45:47.261Z,25.98
2018-05-13T10:46:47.194Z,26.02
2018-05-13T10:47:47.128Z,26.06
2018-05-13T10:48:47.054Z,26.05
2018-05-13T10:49:46.989Z,26.05
2018-05-13T10:50:46.929Z,26.06
2018-05-13T10:51:46.849Z,26.21
2018-05-13T10:52:46.783Z,26.16
2018-05-13T10:53:46.714Z,26.15
2018-05-13T10:54:46.651Z,26.19
2018-05-13T10:55:46.575Z,26.18
2018-05-13T10:56:46.512Z,26.18
2018-05-13T10:57:46.464Z,26.19
2018-05-13T10:58:46.370Z,26.29
2018-05-13T10:59:46.302Z,26.29
2018-05-13T11:00:46.243Z,26.47
2018-05-13T11:01:46.167Z,26.55
2018-05-13T11:02:46.099Z,26.60
2018-05-13T11:03:46.029Z,26.68
2018-05-13T11:04:46.069Z,26.68
2018-05-13T11:05:45.896Z,26.77
2018-05-13T11:06:45.842Z,26.74
2018-05-13T11:07:45.759Z,26.75
2018-05-13T11:08:45.689Z,26.84
2018-05-13T11:09:45.621Z,26.93
2018-05-13T11:10:45.550Z,26.92
2018-05-13T11:11:45.483Z,26.89
2018-05-13T11:12:45.416Z,27.00
2018-05-13T11:13:45.348Z,27.03
2018-05-13T11:14:45.281Z,27.11
2018-05-13T11:15:45.217Z,27.18
2018-05-13T11:16:45.146Z,27.14
2018-05-13T11:17:45.081Z,27.14
2018-05-13T11:18:45.008Z,27.15
2018-05-13T11:19:44.945Z,27.18
2018-05-13T11:20:44.898Z,27.29
2018-05-13T11:21:44.804Z,27.33
2018-05-13T11:22:44.737Z,27.35
2018-05-13T11:23:44.690Z,27.33
2018-05-13T11:24:44.602Z,27.32
2018-05-13T11:25:44.536Z,27.40
2018-05-13T11:26:44.486Z,27.54
2018-05-13T11:27:44.401Z,27.63
2018-05-13T11:28:44.333Z,27.58
2018-05-13T11:29:44.279Z,27.74
2018-05-13T11:30:44.201Z,27.74
2018-05-13T11:31:44.131Z,27.71
2018-05-13T11:32:44.063Z,27.83
2018-05-13T11:33:44.083Z,27.78
2018-05-13T11:34:43.925Z,27.78
2018-05-13T11:35:43.862Z,27.80
2018-05-13T11:36:43.795Z,27.82
2018-05-13T11:37:43.727Z,27.86
2018-05-13T11:38:43.655Z,27.95
2018-05-13T11:39:43.592Z,27.95
2018-05-13T11:40:43.521Z,27.96
2018-05-13T11:41:43.458Z,27.96
2018-05-13T11:42:43.387Z,28.10
2018-05-13T11:43:43.321Z,28.12
2018-05-13T11:44:43.251Z,28.08
2018-05-13T11:45:43.187Z,28.15
2018-05-13T11:46:43.164Z,28.15
2018-05-13T11:47:43.051Z,28.17
2018-05-13T11:48:42.987Z,28.27
2018-05-13T11:49:42.921Z,28.26
2018-05-13T11:50:42.853Z,28.32
2018-05-13T11:51:42.811Z,28.30
2018-05-13T11:52:42.717Z,28.41
2018-05-13T11:53:43.644Z,28.41
2018-05-13T11:54:42.584Z,28.49
2018-05-13T11:55:42.517Z,28.64
2018-05-13T11:56:42.456Z,28.56
2018-05-13T11:57:42.382Z,28.64
2018-05-13T11:58:42.352Z,28.66
2018-05-13T11:59:42.254Z,28.82
2018-05-13T12:00:42.183Z,28.86
2018-05-13T12:01:42.117Z,28.88
2018-05-13T12:02:42.049Z,28.94
2018-05-13T12:03:41.983Z,28.93
2018-05-13T12:04:41.915Z,28.94
2018-05-13T12:05:41.851Z,29.02
2018-05-13T12:06:41.784Z,29.10
2018-05-13T12:07:41.715Z,29.13
2018-05-13T12:08:41.651Z,29.08
2018-05-13T12:09:41.587Z,29.01
2018-05-13T12:10:41.517Z,29.08
2018-05-13T12:11:41.450Z,29.08
2018-05-13T12:12:41.390Z,29.26
2018-05-13T12:13:41.331Z,29.31
2018-05-13T12:14:41.253Z,29.17
2018-05-13T12:15:41.185Z,29.14
2018-05-13T12:16:41.186Z,29.05
2018-05-13T12:17:41.053Z,29.01
2018-05-13T12:18:40.984Z,28.91
2018-05-13T12:19:40.917Z,28.86
2018-05-13T12:20:40.853Z,28.97
2018-05-13T12:21:40.787Z,28.97
2018-05-13T12:22:40.745Z,28.88
2018-05-13T12:23:40.653Z,28.79
2018-05-13T12:24:40.587Z,28.74
2018-05-13T12:25:40.521Z,28.69
2018-05-13T12:26:40.455Z,28.66
2018-05-13T12:27:40.393Z,28.64
2018-05-13T12:28:40.322Z,28.66
2018-05-13T12:29:40.259Z,28.81
2018-05-13T12:30:40.201Z,28.89
2018-05-13T12:31:40.123Z,29.04
2018-05-13T12:32:40.061Z,29.19
2018-05-13T12:33:39.995Z,29.26
2018-05-13T12:34:39.945Z,29.10
2018-05-13T12:35:39.858Z,29.42
2018-05-13T12:36:39.796Z,29.41
2018-05-13T12:37:39.726Z,29.27
2018-05-13T12:38:39.660Z,29.41
2018-05-13T12:39:39.593Z,29.44
2018-05-13T12:40:39.529Z,29.59
2018-05-13T12:41:39.465Z,29.73
2018-05-13T12:42:39.396Z,29.94
2018-05-13T12:43:39.333Z,30.21
2018-05-13T12:44:39.265Z,30.24
2018-05-13T12:45:39.215Z,30.47
2018-05-13T12:46:39.133Z,30.46
2018-05-13T12:47:39.072Z,30.40
2018-05-13T12:48:39.002Z,30.69
2018-05-13T12:49:38.940Z,31.03
2018-05-13T12:50:38.872Z,31.28
2018-05-13T12:51:38.809Z,31.69
2018-05-13T12:52:38.743Z,31.69
2018-05-13T12:53:38.684Z,31.58
2018-05-13T12:54:38.621Z,32.23
2018-05-13T12:55:38.575Z,32.59
2018-05-13T12:56:38.487Z,33.04
2018-05-13T12:57:38.423Z,33.31
2018-05-13T12:58:38.361Z,33.47
2018-05-13T12:59:38.295Z,33.64
2018-05-13T13:00:38.231Z,33.65
2018-05-13T13:01:38.170Z,33.84
2018-05-13T13:02:38.106Z,34.08
2018-05-13T13:03:38.043Z,34.14
2018-05-13T13:04:37.983Z,34.25
2018-05-13T13:05:37.921Z,34.05
2018-05-13T13:06:37.874Z,34.20
2018-05-13T13:07:37.842Z,33.83
2018-05-13T13:08:37.733Z,33.86
2018-05-13T13:09:37.674Z,33.77
2018-05-13T13:10:37.610Z,33.98
2018-05-13T13:11:37.545Z,33.68
2018-05-13T13:12:37.488Z,33.98
2018-05-13T13:13:37.432Z,34.14
2018-05-13T13:14:37.363Z,34.38
2018-05-13T13:15:37.300Z,34.36
2018-05-13T13:16:37.245Z,33.92
2018-05-13T13:17:37.174Z,33.43
2018-05-13T13:18:37.113Z,33.79
2018-05-13T13:19:37.048Z,33.81
2018-05-13T13:20:36.984Z,34.06
2018-05-13T13:21:36.925Z,34.16
2018-05-13T13:22:36.875Z,33.92
2018-05-13T13:23:36.818Z,33.45
2018-05-13T13:24:36.737Z,32.90
2018-05-13T13:25:36.675Z,32.55
2018-05-13T13:26:36.609Z,32.36
2018-05-13T13:27:36.549Z,32.48
2018-05-13T13:28:36.486Z,32.41
2018-05-13T13:29:36.422Z,32.52
2018-05-13T13:30:36.433Z,32.60
2018-05-13T13:31:36.318Z,32.53
2018-05-13T13:32:36.232Z,32.29
2018-05-13T13:33:36.173Z,32.08
2018-05-13T13:34:36.109Z,32.23
2018-05-13T13:35:36.050Z,32.15
2018-05-13T13:36:36.038Z,32.26
2018-05-13T13:37:35.916Z,32.34
2018-05-13T13:38:35.859Z,32.30
2018-05-13T13:39:35.798Z,32.07
2018-05-13T13:40:35.724Z,31.74
2018-05-13T13:41:35.664Z,31.46
2018-05-13T13:42:35.598Z,31.37
2018-05-13T13:43:35.534Z,31.27
2018-05-13T13:44:35.472Z,31.06
2018-05-13T13:45:35.407Z,31.33
2018-05-13T13:46:35.344Z,31.31
2018-05-13T13:47:35.280Z,31.18
2018-05-13T13:48:35.215Z,31.00
2018-05-13T13:49:35.154Z,30.83
2018-05-13T13:50:35.086Z,30.57
2018-05-13T13:51:35.048Z,30.31
2018-05-13T13:52:34.974Z,30.13
2018-05-13T13:53:34.953Z,29.93
2018-05-13T13:54:34.831Z,29.93
2018-05-13T13:55:34.782Z,29.94
2018-05-13T13:56:34.699Z,29.78
2018-05-13T13:57:34.635Z,29.49
2018-05-13T13:58:34.569Z,29.29
2018-05-13T13:59:34.583Z,29.14
2018-05-13T14:00:34.442Z,28.82
2018-05-13T14:01:34.387Z,28.67
2018-05-13T14:02:34.311Z,28.41
2018-05-13T14:03:34.246Z,28.10
2018-05-13T14:04:34.190Z,28.05
2018-05-13T14:05:34.117Z,27.95
2018-05-13T14:06:34.051Z,27.90
2018-05-13T14:07:33.985Z,27.77
2018-05-13T14:08:33.922Z,27.67
2018-05-13T14:09:33.854Z,27.59
2018-05-13T14:10:33.788Z,27.36
2018-05-13T14:11:33.734Z,27.33
2018-05-13T14:12:33.657Z,27.18
2018-05-13T14:13:33.589Z,26.90
2018-05-13T14:14:33.524Z,26.80
2018-05-13T14:15:33.457Z,26.60
2018-05-13T14:16:33.394Z,26.55
2018-05-13T14:17:33.324Z,26.43
2018-05-13T14:18:33.257Z,26.40
2018-05-13T14:19:33.193Z,26.29
2018-05-13T14:20:33.161Z,26.15
2018-05-13T14:21:33.069Z,25.95
2018-05-13T14:22:32.992Z,25.96
2018-05-13T14:23:32.926Z,25.95
2018-05-13T14:24:32.878Z,25.85
2018-05-13T14:25:32.804Z,25.69
2018-05-13T14:26:32.723Z,25.66
2018-05-13T14:27:32.662Z,25.69
2018-05-13T14:28:32.591Z,25.50
2018-05-13T14:29:32.523Z,25.50
2018-05-13T14:30:32.460Z,25.36
2018-05-13T14:31:32.388Z,25.31
2018-05-13T14:32:32.337Z,25.23
2018-05-13T14:33:32.255Z,25.23
2018-05-13T14:34:32.192Z,25.17
2018-05-13T14:35:32.118Z,25.28
2018-05-13T14:36:32.063Z,25.11
2018-05-13T14:37:31.986Z,25.17
2018-05-13T14:38:31.915Z,25.22
2018-05-13T14:39:31.848Z,25.28
2018-05-13T14:40:31.792Z,25.41
2018-05-13T14:41:31.711Z,25.50
2018-05-13T14:42:31.647Z,25.51
2018-05-13T14:43:31.590Z,25.48
2018-05-13T14:44:31.509Z,25.47
2018-05-13T14:45:31.530Z,25.40
2018-05-13T14:46:31.406Z,25.40
2018-05-13T14:47:31.321Z,25.31
2018-05-13T14:48:31.238Z,25.26
2018-05-13T14:49:31.171Z,25.21
2018-05-13T14:50:31.102Z,25.16
2018-05-13T14:51:31.043Z,25.18
2018-05-13T14:52:30.966Z,25.10
2018-05-13T14:53:30.901Z,25.08
2018-05-13T14:54:30.837Z,25.10
2018-05-13T14:55:30.774Z,25.23
2018-05-13T14:56:30.699Z,25.48
2018-05-13T14:57:30.626Z,25.40
2018-05-13T14:58:30.579Z,25.44
2018-05-13T14:59:30.494Z,25.43
2018-05-13T15:00:30.423Z,25.35
2018-05-13T15:01:30.366Z,25.38
2018-05-13T15:02:30.295Z,25.38
2018-05-13T15:03:30.219Z,25.46
2018-05-13T15:04:30.169Z,25.36
2018-05-13T15:05:30.266Z,25.36
2018-05-13T15:06:30.063Z,25.41
2018-05-13T15:07:29.947Z,25.40
2018-05-13T15:08:29.881Z,25.41
2018-05-13T15:09:29.811Z,25.53
2018-05-13T15:10:29.776Z,25.44
2018-05-13T15:11:29.684Z,25.33
2018-05-13T15:12:29.610Z,25.25
2018-05-13T15:13:29.554Z,25.18
2018-05-13T15:14:29.471Z,25.06
2018-05-13T15:15:29.426Z,24.99
2018-05-13T15:16:29.340Z,24.93
2018-05-13T15:17:29.265Z,24.91
2018-05-13T15:18:29.196Z,24.85
2018-05-13T15:19:29.135Z,24.78
2018-05-13T15:20:29.060Z,24.74
2018-05-13T15:21:28.991Z,24.77
2018-05-13T15:22:29.002Z,24.70
2018-05-13T15:23:28.866Z,24.63
2018-05-13T15:24:28.805Z,24.55
2018-05-13T15:25:28.720Z,24.45
2018-05-13T15:26:28.656Z,24.48
2018-05-13T15:27:28.581Z,24.38
2018-05-13T15:28:28.518Z,24.35
2018-05-13T15:29:28.460Z,24.33
2018-05-13T15:30:28.376Z,24.36
2018-05-13T15:31:28.309Z,24.29
2018-05-13T15:32:28.239Z,24.24
2018-05-13T15:33:28.188Z,24.20
2018-05-13T15:34:28.102Z,24.24
2018-05-13T15:35:28.053Z,24.16
2018-05-13T15:36:27.973Z,24.21
2018-05-13T15:37:27.916Z,24.24
2018-05-13T15:38:27.827Z,24.13
2018-05-13T15:39:27.848Z,24.08
2018-05-13T15:40:27.703Z,24.05
2018-05-13T15:41:27.618Z,24.03
2018-05-13T15:42:27.568Z,24.03
2018-05-13T15:43:27.529Z,24.01
2018-05-13T15:44:27.488Z,23.95
2018-05-13T15:45:27.375Z,23.93
2018-05-13T15:46:27.294Z,23.87
2018-05-13T15:47:27.205Z,23.83
2018-05-13T15:48:27.137Z,23.84
2018-05-13T15:49:27.067Z,23.77
2018-05-13T15:50:26.997Z,23.78
2018-05-13T15:51:26.928Z,23.78
2018-05-13T15:52:26.876Z,23.81
2018-05-13T15:53:26.789Z,23.80
2018-05-13T15:54:26.719Z,23.81
2018-05-13T15:55:26.653Z,23.81
2018-05-13T15:56:26.591Z,23.86
2018-05-13T15:57:26.521Z,23.86
2018-05-13T15:58:26.442Z,23.83
2018-05-13T15:59:26.374Z,23.87
2018-05-13T16:00:26.311Z,23.81
2018-05-13T16:01:26.235Z,23.81
2018-05-13T16:02:26.169Z,23.86
2018-05-13T16:03:26.104Z,23.84
2018-05-13T16:04:26.033Z,23.80
2018-05-13T16:05:25.965Z,23.74
2018-05-13T16:06:25.901Z,23.81
2018-05-13T16:07:25.827Z,23.83
2018-05-13T16:08:25.752Z,23.87
2018-05-13T16:09:25.696Z,23.91
2018-05-13T16:10:25.611Z,23.92
2018-05-13T16:11:25.544Z,24.02
2018-05-13T16:12:25.476Z,24.38
2018-05-13T16:13:25.405Z,25.10
2018-05-13T16:14:25.336Z,25.91
2018-05-13T16:15:25.268Z,26.60
2018-05-13T16:16:25.207Z,27.36
2018-05-13T16:17:25.128Z,27.65
2018-05-13T16:18:25.059Z,27.92
2018-05-13T16:19:24.990Z,28.33
2018-05-13T16:20:24.924Z,28.85
2018-05-13T16:21:24.855Z,29.24
2018-05-13T16:22:24.799Z,29.53
2018-05-13T16:23:24.721Z,29.86
2018-05-13T16:24:24.658Z,30.13
2018-05-13T16:25:24.590Z,30.34
2018-05-13T16:26:24.523Z,30.70
2018-05-13T16:27:24.456Z,31.09
2018-05-13T16:28:24.390Z,31.37
2018-05-13T16:29:24.336Z,31.54
2018-05-13T16:30:24.386Z,31.73
2018-05-13T16:31:24.196Z,31.94
2018-05-13T16:32:24.130Z,32.19
2018-05-13T16:33:24.072Z,32.41
2018-05-13T16:34:24.000Z,32.53
2018-05-13T16:35:24.017Z,32.63
2018-05-13T16:36:23.874Z,32.77
2018-05-13T16:37:23.817Z,32.82
2018-05-13T16:38:23.799Z,32.90
2018-05-13T16:39:23.683Z,33.04
2018-05-13T16:40:23.621Z,33.09
2018-05-13T16:41:23.557Z,33.14
2018-05-13T16:42:23.495Z,33.20
2018-05-13T16:43:23.444Z,33.19
2018-05-13T16:44:23.369Z,33.09
2018-05-13T16:45:23.306Z,33.22
2018-05-13T16:46:23.285Z,33.15
2018-05-13T16:47:23.186Z,33.17
2018-05-13T16:48:23.125Z,33.15
2018-05-13T16:49:23.068Z,33.15
2018-05-13T16:50:22.998Z,33.19
2018-05-13T16:51:22.936Z,33.02
2018-05-13T16:52:22.877Z,32.82
2018-05-13T16:53:22.813Z,32.74
2018-05-13T16:54:22.751Z,32.67
2018-05-13T16:55:22.699Z,32.71
2018-05-13T16:56:22.629Z,32.70
2018-05-13T16:57:22.564Z,32.77
2018-05-13T16:58:22.503Z,32.80
2018-05-13T16:59:22.519Z,32.68
2018-05-13T17:00:22.381Z,32.46
2018-05-13T17:01:22.320Z,32.27
2018-05-13T17:02:22.283Z,31.93
2018-05-13T17:03:22.198Z,31.70
2018-05-13T17:04:22.143Z,31.58
2018-05-13T17:05:22.079Z,31.10
2018-05-13T17:06:22.014Z,31.00
2018-05-13T17:07:21.952Z,30.88
2018-05-13T17:08:21.896Z,30.57
2018-05-13T17:09:21.874Z,30.23
2018-05-13T17:10:21.766Z,29.98
2018-05-13T17:11:21.707Z,29.78
2018-05-13T17:12:21.645Z,29.57
2018-05-13T17:13:21.590Z,29.29
2018-05-13T17:14:21.520Z,28.89
2018-05-13T17:15:21.460Z,28.57
2018-05-13T17:16:21.405Z,28.35
2018-05-13T17:17:21.346Z,28.20
2018-05-13T17:18:21.277Z,28.01
2018-05-13T17:19:21.209Z,27.77
2018-05-13T17:20:21.144Z,27.63
2018-05-13T17:21:21.082Z,27.48
2018-05-13T17:22:21.035Z,27.40
2018-05-13T17:23:20.955Z,27.30
2018-05-13T17:24:20.893Z,27.20
2018-05-13T17:25:20.825Z,27.00
2018-05-13T17:26:20.763Z,26.89
2018-05-13T17:27:20.700Z,26.78
2018-05-13T17:28:20.706Z,26.56
2018-05-13T17:29:20.570Z,26.48
2018-05-13T17:30:20.504Z,26.47
2018-05-13T17:31:20.439Z,26.38
2018-05-13T17:32:20.378Z,26.29
2018-05-13T17:33:20.308Z,26.26
2018-05-13T17:34:20.248Z,26.16
2018-05-13T17:35:20.178Z,26.05
2018-05-13T17:36:20.135Z,26.00
2018-05-13T17:37:20.075Z,26.03
2018-05-13T17:38:19.982Z,25.95
2018-05-13T17:39:19.961Z,25.81
2018-05-13T17:40:19.852Z,25.77
2018-05-13T17:41:19.850Z,25.63
2018-05-13T17:42:19.719Z,25.59
2018-05-13T17:43:19.651Z,25.47
2018-05-13T17:44:19.581Z,25.51
2018-05-13T17:45:19.515Z,25.43
2018-05-13T17:46:19.449Z,25.36
2018-05-13T17:47:19.379Z,25.32
2018-05-13T17:48:19.325Z,25.28
2018-05-13T17:49:19.250Z,25.21
2018-05-13T17:50:19.181Z,25.13
2018-05-13T17:51:19.114Z,25.10
2018-05-13T17:52:19.048Z,25.07
2018-05-13T17:53:18.980Z,25.04
2018-05-13T17:54:18.921Z,24.92
2018-05-13T17:55:18.844Z,24.85
2018-05-13T17:56:18.783Z,24.84
2018-05-13T17:57:18.738Z,24.73
2018-05-13T17:58:18.642Z,24.80
2018-05-13T17:59:18.575Z,24.65
2018-05-13T18:00:18.566Z,24.66
2018-05-13T18:01:18.442Z,24.53
2018-05-13T18:02:18.451Z,24.54
2018-05-13T18:03:18.489Z,24.55
2018-05-13T18:04:18.235Z,24.48
2018-05-13T18:05:18.168Z,24.35
2018-05-13T18:06:18.105Z,24.28
2018-05-13T18:07:18.031Z,24.24
2018-05-13T18:08:17.961Z,24.24
2018-05-13T18:09:17.895Z,24.21
2018-05-13T18:10:17.828Z,24.14
2018-05-13T18:11:17.762Z,24.11
2018-05-13T18:12:17.804Z,24.06
2018-05-13T18:13:17.621Z,23.96
2018-05-13T18:14:17.558Z,23.99
2018-05-13T18:15:17.488Z,23.84
2018-05-13T18:16:17.417Z,23.84
2018-05-13T18:17:17.346Z,23.80
2018-05-13T18:18:17.278Z,23.84
2018-05-13T18:19:17.216Z,23.66
2018-05-13T18:20:17.141Z,23.68
2018-05-13T18:21:17.074Z,23.71
2018-05-13T18:22:17.003Z,23.61
2018-05-13T18:23:16.934Z,23.63
2018-05-13T18:24:16.867Z,23.59
2018-05-13T18:25:16.796Z,23.58
2018-05-13T18:26:16.729Z,23.50
2018-05-13T18:27:16.658Z,23.55
2018-05-13T18:28:16.587Z,23.48
2018-05-13T18:29:16.518Z,23.40
2018-05-13T18:30:16.448Z,23.36
2018-05-13T18:31:16.389Z,23.43
2018-05-13T18:32:16.324Z,23.37
2018-05-13T18:33:16.242Z,23.28
2018-05-13T18:34:16.171Z,23.34
2018-05-13T18:35:16.102Z,23.34
2018-05-13T18:36:16.082Z,23.34
2018-05-13T18:37:15.964Z,23.18
2018-05-13T18:38:15.896Z,23.18
2018-05-13T18:39:15.953Z,23.25
2018-05-13T18:40:15.754Z,23.21
2018-05-13T18:41:15.686Z,23.12
2018-05-13T18:42:15.660Z,23.13
2018-05-13T18:43:15.546Z,23.06
2018-05-13T18:44:15.477Z,23.03
2018-05-13T18:45:15.407Z,23.03
2018-05-13T18:46:15.344Z,23.00
2018-05-13T18:47:15.267Z,22.90
2018-05-13T18:48:15.204Z,22.93
2018-05-13T18:49:15.130Z,22.88
2018-05-13T18:50:15.072Z,22.75
2018-05-13T18:51:14.992Z,22.83
2018-05-13T18:52:14.917Z,22.81
2018-05-13T18:53:14.853Z,22.81
2018-05-13T18:54:14.782Z,22.78
2018-05-13T18:55:14.707Z,22.80
2018-05-13T18:56:14.649Z,22.76
2018-05-13T18:57:14.568Z,22.81
2018-05-13T18:58:14.503Z,22.78
2018-05-13T18:59:14.451Z,22.76
2018-05-13T19:00:14.359Z,22.69
2018-05-13T19:01:14.288Z,22.69
2018-05-13T19:02:14.225Z,22.57
2018-05-13T19:03:14.149Z,22.62
2018-05-13T19:04:14.077Z,22.62
2018-05-13T19:05:14.007Z,22.47
2018-05-13T19:06:13.937Z,22.47
2018-05-13T19:07:13.869Z,22.43
2018-05-13T19:08:13.796Z,22.48
2018-05-13T19:09:13.731Z,22.45
2018-05-13T19:10:13.656Z,22.38
2018-05-13T19:11:13.586Z,22.36
2018-05-13T19:12:13.571Z,22.30
2018-05-13T19:13:13.444Z,22.36
2018-05-13T19:14:13.381Z,22.28
2018-05-13T19:15:13.307Z,22.26
2018-05-13T19:16:13.235Z,22.25
2018-05-13T19:17:13.165Z,22.20
2018-05-13T19:18:13.092Z,22.23
2018-05-13T19:19:13.026Z,22.20
2018-05-13T19:20:12.970Z,22.15
2018-05-13T19:21:12.883Z,22.07
2018-05-13T19:22:12.810Z,22.14
2018-05-13T19:23:12.742Z,22.15
2018-05-13T19:24:12.671Z,22.11
2018-05-13T19:25:12.602Z,22.08
2018-05-13T19:26:12.527Z,22.06
2018-05-13T19:27:12.457Z,22.11
2018-05-13T19:28:12.388Z,22.06
2018-05-13T19:29:12.319Z,22.06
2018-05-13T19:30:12.249Z,22.08
2018-05-13T19:31:12.182Z,21.93
2018-05-13T19:32:12.110Z,22.02
2018-05-13T19:33:12.034Z,22.00
2018-05-13T19:34:11.962Z,21.99
2018-05-13T19:35:11.894Z,22.06
2018-05-13T19:36:11.835Z,22.00
2018-05-13T19:37:11.762Z,21.99
2018-05-13T19:38:11.681Z,21.96
2018-05-13T19:39:11.611Z,21.93
2018-05-13T19:40:11.540Z,21.83
2018-05-13T19:41:11.468Z,21.92
2018-05-13T19:42:11.397Z,22.00
2018-05-13T19:43:11.334Z,21.91
2018-05-13T19:44:11.255Z,21.92
2018-05-13T19:45:11.185Z,21.85
2018-05-13T19:46:11.114Z,21.79
2018-05-13T19:47:11.049Z,21.73
2018-05-13T19:48:10.973Z,21.72
2018-05-13T19:49:10.913Z,21.69
2018-05-13T19:50:10.835Z,21.77
2018-05-13T19:51:10.760Z,21.73
2018-05-13T19:52:10.690Z,21.76
2018-05-13T19:53:10.619Z,21.75
2018-05-13T19:54:10.620Z,21.76
2018-05-13T19:55:10.476Z,21.73
2018-05-13T19:56:10.412Z,21.75
2018-05-13T19:57:10.336Z,21.70
2018-05-13T19:58:10.266Z,21.70
2018-05-13T19:59:10.192Z,21.70
2018-05-13T20:00:10.122Z,21.76
2018-05-13T20:01:10.051Z,21.75
2018-05-13T20:02:09.990Z,21.77
2018-05-13T20:03:10.006Z,21.69
2018-05-13T20:04:09.839Z,21.69
2018-05-13T20:05:09.766Z,21.70
2018-05-13T20:06:09.716Z,21.72
2018-05-13T20:07:09.624Z,21.69
2018-05-13T20:08:09.561Z,21.66
2018-05-13T20:09:09.505Z,21.72
2018-05-13T20:10:09.410Z,21.72
2018-05-13T20:11:09.342Z,21.66
2018-05-13T20:12:09.270Z,21.69
2018-05-13T20:13:09.202Z,21.75
2018-05-13T20:14:09.137Z,21.75
2018-05-13T20:15:09.065Z,21.69
2018-05-13T20:16:08.985Z,21.67
2018-05-13T20:17:08.916Z,21.69
2018-05-13T20:18:08.845Z,21.67
2018-05-13T20:19:08.773Z,21.64
2018-05-13T20:20:08.701Z,21.61
2018-05-13T20:21:08.632Z,21.58
2018-05-13T20:22:08.582Z,21.58
2018-05-13T20:23:08.495Z,21.50
2018-05-13T20:24:08.418Z,21.51
2018-05-13T20:25:08.347Z,21.55
2018-05-13T20:26:08.274Z,21.52
2018-05-13T20:27:08.204Z,21.50
2018-05-13T20:28:08.141Z,21.51
2018-05-13T20:29:08.065Z,21.50
2018-05-13T20:30:07.993Z,21.52
2018-05-13T20:31:07.920Z,21.43
2018-05-13T20:32:07.850Z,21.51
2018-05-13T20:33:07.777Z,21.48
2018-05-13T20:34:07.713Z,21.46
2018-05-13T20:35:07.636Z,21.46
2018-05-13T20:36:07.564Z,21.39
2018-05-13T20:37:07.493Z,21.48
2018-05-13T20:38:07.420Z,21.43
2018-05-13T20:39:07.355Z,21.42
2018-05-13T20:40:07.291Z,21.48
2018-05-13T20:41:07.207Z,21.39
2018-05-13T20:42:07.141Z,21.48
2018-05-13T20:43:07.084Z,21.40
2018-05-13T20:44:06.993Z,21.39
2018-05-13T20:45:06.922Z,21.32
2018-05-13T20:46:06.851Z,21.35
2018-05-13T20:47:06.790Z,21.46
2018-05-13T20:48:06.707Z,21.35
2018-05-13T20:49:06.640Z,21.46
2018-05-13T20:50:06.564Z,21.40
2018-05-13T20:51:06.493Z,21.46
2018-05-13T20:52:06.427Z,21.43
2018-05-13T20:53:06.357Z,21.29
2018-05-13T20:54:06.288Z,21.35
2018-05-13T20:55:06.208Z,21.25
2018-05-13T20:56:06.138Z,21.27
2018-05-13T20:57:06.066Z,21.32
2018-05-13T20:58:05.997Z,21.39
2018-05-13T20:59:05.927Z,21.35
2018-05-13T21:00:05.855Z,21.39
2018-05-13T21:01:05.780Z,21.25
2018-05-13T21:02:05.708Z,21.36
2018-05-13T21:03:05.641Z,21.32
2018-05-13T21:04:05.576Z,21.25
2018-05-13T21:05:05.496Z,21.24
2018-05-13T21:06:05.427Z,21.25
2018-05-13T21:07:05.357Z,21.22
2018-05-13T21:08:05.286Z,21.30
2018-05-13T21:09:05.213Z,21.30
2018-05-13T21:10:05.139Z,21.35
2018-05-13T21:11:05.070Z,21.39
2018-05-13T21:12:04.996Z,21.30
2018-05-13T21:13:04.933Z,21.27
2018-05-13T21:14:04.852Z,21.29
2018-05-13T21:15:04.784Z,21.35
2018-05-13T21:16:04.795Z,21.35
2018-05-13T21:17:04.641Z,21.35
2018-05-13T21:18:04.568Z,21.25
2018-05-13T21:19:04.499Z,21.36
2018-05-13T21:20:04.429Z,21.40
2018-05-13T21:21:04.356Z,21.42
2018-05-13T21:22:04.285Z,21.39
2018-05-13T21:23:04.216Z,21.45
2018-05-13T21:24:04.144Z,21.37
2018-05-13T21:25:04.072Z,21.51
2018-05-13T21:26:04.009Z,21.43
2018-05-13T21:27:03.927Z,21.48
2018-05-13T21:28:03.854Z,21.43
2018-05-13T21:29:03.784Z,21.48
2018-05-13T21:30:03.789Z,21.46
2018-05-13T21:31:03.640Z,21.45
2018-05-13T21:32:03.571Z,21.43
2018-05-13T21:33:03.511Z,21.29
2018-05-13T21:34:03.428Z,21.25
2018-05-13T21:35:03.361Z,21.15
2018-05-13T21:36:03.284Z,21.11
2018-05-13T21:37:03.224Z,20.96
2018-05-13T21:38:03.142Z,20.92
2018-05-13T21:39:03.081Z,20.97
2018-05-13T21:40:03.000Z,20.92
2018-05-13T21:41:02.929Z,20.97
2018-05-13T21:42:02.855Z,20.82
2018-05-13T21:43:02.791Z,20.95
2018-05-13T21:44:02.713Z,20.88
2018-05-13T21:45:02.652Z,20.85
2018-05-13T21:46:02.569Z,20.80
2018-05-13T21:47:02.534Z,20.95
2018-05-13T21:48:02.427Z,20.81
2018-05-13T21:49:02.358Z,20.93
2018-05-13T21:50:02.285Z,20.84
2018-05-13T21:51:02.226Z,20.88
2018-05-13T21:52:02.140Z,20.87
2018-05-13T21:53:02.069Z,20.90
2018-05-13T21:54:02.000Z,20.95